Time;durP1;ratioP1;P1;durP2;ratioP2;P2;SDS_P1;SDS_P2;PMS_P1;PMS_P2;Temp;Humidity;BMP_temperature;BMP_pressure;BME280_temperature;BME280_humidity;BME280_pressure;Samples;Min_cycle;Max_cycle;Signal;HPM_P1;HPM_P2
2022/08/01 00:00:26;;;;;;;4.95;1.83;;;;;;;25.83;40.97;100526.44;4164402;28;20042;-65
2022/08/01 00:02:30;;;;;;;2.70;1.58;;;;;;;25.85;40.82;100520.09;4164284;28;20076;-65
2022/08/01 00:04:33;;;;;;;2.83;1.70;;;;;;;25.91;40.82;100513.63;4165257;28;20033;-65
2022/08/01 00:06:36;;;;;;;2.47;1.55;;;;;;;25.93;40.94;100514.41;4164696;28;20033;-65
2022/08/01 00:08:39;;;;;;;2.03;1.25;;;;;;;25.92;40.85;100516.22;4164892;28;20037;-65
2022/08/01 00:10:42;;;;;;;2.13;1.60;;;;;;;25.94;40.83;100516.97;4175209;28;20116;-65
2022/08/01 00:12:46;;;;;;;2.05;1.50;;;;;;;25.96;41.13;100516.91;4161324;28;20053;-65
2022/08/01 00:14:49;;;;;;;2.97;1.92;;;;;;;25.90;41.00;100517.22;4162958;28;20495;-65
2022/08/01 00:16:53;;;;;;;2.10;1.50;;;;;;;25.90;41.14;100520.72;4165471;28;20044;-65
2022/08/01 00:18:56;;;;;;;2.25;1.63;;;;;;;25.98;41.21;100514.16;4164708;28;20046;-65
2022/08/01 00:20:59;;;;;;;1.65;1.50;;;;;;;25.92;41.31;100512.69;4163409;28;20045;-65
2022/08/01 00:23:03;;;;;;;2.58;1.70;;;;;;;25.90;41.39;100525.22;4195875;28;20036;-65
2022/08/01 00:25:07;;;;;;;3.75;1.55;;;;;;;25.87;41.65;100522.69;4164974;28;20439;-65
2022/08/01 00:27:10;;;;;;;2.88;1.67;;;;;;;25.77;41.87;100525.81;4169169;28;20033;-65
2022/08/01 00:29:12;;;;;;;5.85;1.95;;;;;;;25.73;42.00;100521.56;4178695;28;20051;-65
2022/08/01 00:31:35;;;;;;;4.85;1.55;;;;;;;25.76;41.81;100532.06;4168654;28;20041;-65
2022/08/01 00:33:40;;;;;;;1.55;1.45;;;;;;;25.76;42.26;100520.56;4165557;28;20395;-65
2022/08/01 00:35:42;;;;;;;;;;;;;;;25.59;42.31;100530.19;4166525;28;20041;-64
2022/08/01 00:37:45;;;;;;;2.88;1.42;;;;;;;25.63;42.66;100538.03;4163252;28;19928;-65
2022/08/01 00:39:48;;;;;;;1.55;1.20;;;;;;;25.65;42.66;100531.72;4197693;28;20032;-65
2022/08/01 00:41:51;;;;;;;2.00;1.15;;;;;;;25.64;43.08;100537.97;4163498;28;20787;-65
2022/08/01 00:44:05;;;;;;;5.47;1.67;;;;;;;25.73;42.84;100526.91;4164792;28;20068;-65
2022/08/01 00:46:07;;;;;;;4.63;1.90;;;;;;;25.65;43.19;100529.06;4163140;28;20038;-65
2022/08/01 00:48:11;;;;;;;3.08;1.23;;;;;;;25.60;43.38;100531.09;4163902;28;20041;-65
2022/08/01 00:50:15;;;;;;;1.75;1.25;;;;;;;25.63;43.35;100538.03;4164865;28;20036;-65
2022/08/01 00:52:18;;;;;;;;;;;;;;;25.44;43.81;100537.13;4164237;28;20040;-65
2022/08/01 00:54:21;;;;;;;1.90;1.20;;;;;;;25.68;43.55;100536.03;4165528;28;19925;-64
2022/08/01 00:56:26;;;;;;;2.08;1.20;;;;;;;25.55;43.81;100536.63;4164667;28;20037;-65
2022/08/01 00:58:31;;;;;;;4.60;1.50;;;;;;;25.59;43.70;100537.34;4164901;28;20030;-65
2022/08/01 01:00:36;;;;;;;2.40;1.17;;;;;;;25.58;43.73;100539.16;4163810;28;20057;-65
2022/08/01 01:02:55;;;;;;;1.52;1.02;;;;;;;25.53;43.99;100541.16;4155525;28;20033;-65
2022/08/01 01:04:58;;;;;;;3.83;1.52;;;;;;;25.54;44.07;100536.69;4164761;28;20037;-65
2022/08/01 01:07:10;;;;;;;2.63;1.40;;;;;;;25.64;44.00;100543.28;4162854;28;20037;-65
2022/08/01 01:09:33;;;;;;;1.10;1.00;;;;;;;25.59;44.14;100540.84;4163838;28;20044;-65
2022/08/01 01:11:45;;;;;;;1.35;1.05;;;;;;;25.50;44.35;100532.47;4145207;28;20057;-65
2022/08/01 01:13:53;;;;;;;2.35;1.13;;;;;;;25.44;44.52;100536.25;4162858;28;20065;-65
2022/08/01 01:16:00;;;;;;;1.80;1.20;;;;;;;25.40;44.63;100532.88;4144084;28;20045;-65
2022/08/01 01:18:08;;;;;;;2.33;1.40;;;;;;;25.36;44.86;100539.25;4165213;28;20530;-65
2022/08/01 01:20:13;;;;;;;2.17;1.20;;;;;;;25.37;44.69;100541.00;4162683;28;20041;-65
2022/08/01 01:22:33;;;;;;;1.52;1.20;;;;;;;25.33;45.11;100539.41;4162283;28;20133;-65
2022/08/01 01:24:45;;;;;;;3.63;1.58;;;;;;;25.29;45.32;100543.13;4163603;28;20049;-65
2022/08/01 01:26:56;;;;;;;2.83;0.90;;;;;;;25.24;45.42;100539.81;4160116;28;20072;-65
2022/08/01 01:29:09;;;;;;;1.17;1.00;;;;;;;25.15;45.84;100537.59;4163649;28;20034;-65
2022/08/01 01:31:15;;;;;;;2.33;1.30;;;;;;;25.08;45.91;100543.16;4164260;28;20048;-65
2022/08/01 01:33:21;;;;;;;1.52;1.17;;;;;;;25.03;46.17;100539.00;4159716;28;20128;-65
2022/08/01 01:35:27;;;;;;;2.75;1.30;;;;;;;24.96;46.35;100538.41;4164291;28;20048;-65
2022/08/01 01:37:33;;;;;;;1.52;1.02;;;;;;;24.89;46.50;100545.78;4163143;28;20037;-65
2022/08/01 01:39:38;;;;;;;2.50;1.23;;;;;;;24.83;46.87;100546.03;4164238;28;20059;-65
2022/08/01 01:41:49;;;;;;;2.15;1.17;;;;;;;24.78;47.03;100550.72;4161951;28;20025;-65
2022/08/01 01:43:53;;;;;;;1.25;1.10;;;;;;;24.77;47.15;100542.81;4159809;28;20067;-65
2022/08/01 01:45:58;;;;;;;2.13;1.17;;;;;;;24.73;47.14;100548.25;4164057;28;20037;-65
2022/08/01 01:48:02;;;;;;;3.40;1.10;;;;;;;24.70;47.31;100556.34;4164086;28;20048;-65
2022/08/01 01:50:08;;;;;;;2.10;1.10;;;;;;;24.67;47.59;100555.63;4164223;28;20124;-65
2022/08/01 01:52:14;;;;;;;1.25;0.90;;;;;;;24.64;47.64;100567.25;4162536;28;20376;-65
2022/08/01 01:54:19;;;;;;;3.28;1.02;;;;;;;24.61;47.75;100567.38;4164606;28;20513;-65
2022/08/01 01:56:23;;;;;;;2.72;1.27;;;;;;;24.58;48.12;100564.84;4163096;28;20132;-65
2022/08/01 01:58:28;;;;;;;;;;;;;;;24.39;48.28;100562.94;4157664;28;20128;-65
2022/08/01 02:00:32;;;;;;;1.75;1.20;;;;;;;24.41;48.12;100565.53;4164549;28;20028;-65
2022/08/01 02:02:36;;;;;;;;;;;;;;;24.30;48.51;100562.44;4162760;28;20037;-65
2022/08/01 02:04:43;;;;;;;3.63;1.20;;;;;;;24.35;47.97;100565.78;4159709;28;19927;-65
2022/08/01 02:06:47;;;;;;;1.65;1.10;;;;;;;24.35;47.91;100558.69;4163788;28;20040;-65
2022/08/01 02:08:51;;;;;;;;;;;;;;;24.24;48.17;100571.56;4162142;28;20095;-64
2022/08/01 02:13:17;;;;;;;2.53;1.20;;;;;;;24.33;47.90;100563.22;4163583;28;20037;-65
2022/08/01 02:15:25;;;;;;;3.55;1.30;;;;;;;24.33;47.92;100565.88;4164580;28;20061;-65
2022/08/01 02:17:28;;;;;;;4.20;1.42;;;;;;;24.24;48.04;100568.91;4164673;28;20038;-65
2022/08/01 02:19:33;;;;;;;4.00;1.17;;;;;;;24.22;48.16;100573.41;4193260;28;20043;-65
2022/08/01 02:21:45;;;;;;;2.58;1.25;;;;;;;24.21;48.09;100566.34;4162097;28;20056;-65
2022/08/01 02:23:50;;;;;;;2.60;1.05;;;;;;;24.22;48.13;100566.31;4163214;28;20491;-65
2022/08/01 02:25:55;;;;;;;1.85;1.20;;;;;;;24.27;48.17;100574.09;4163636;28;20087;-65
2022/08/01 02:28:18;;;;;;;2.22;1.20;;;;;;;24.34;47.93;100569.38;4163585;28;20124;-65
2022/08/01 02:30:24;;;;;;;2.60;1.00;;;;;;;24.35;48.04;100566.66;4162090;28;20140;-65
2022/08/01 02:32:32;;;;;;;2.25;1.10;;;;;;;24.38;48.03;100571.84;4159400;28;20029;-65
2022/08/01 02:34:37;;;;;;;2.63;1.10;;;;;;;24.40;47.94;100564.69;4163427;28;20045;-65
2022/08/01 02:36:39;;;;;;;;;;;;;;;24.27;48.07;100574.09;4163201;28;20473;-65
2022/08/01 02:38:45;;;;;;;3.38;1.30;;;;;;;24.32;47.98;100580.06;4193860;28;20125;-65
2022/08/01 02:40:52;;;;;;;3.22;1.10;;;;;;;24.31;48.17;100574.81;4163442;28;20426;-65
2022/08/01 02:42:57;;;;;;;2.40;1.20;;;;;;;24.33;48.10;100578.28;4161509;28;20034;-65
2022/08/01 02:45:03;;;;;;;5.60;1.13;;;;;;;24.38;48.16;100569.19;4163127;28;20128;-65
2022/08/01 02:47:06;;;;;;;2.20;1.30;;;;;;;24.40;48.20;100567.34;4160350;28;20529;-65
2022/08/01 02:49:12;;;;;;;1.30;1.20;;;;;;;24.42;48.07;100571.72;4164182;28;20041;-65
2022/08/01 02:51:19;;;;;;;1.70;1.20;;;;;;;24.43;48.20;100568.13;4166878;28;20065;-65
2022/08/01 02:53:24;;;;;;;1.05;0.95;;;;;;;24.43;47.96;100574.31;4154758;28;20439;-65
2022/08/01 02:55:48;;;;;;;1.50;1.10;;;;;;;24.46;48.10;100568.00;4161195;28;20041;-65
2022/08/01 02:57:53;;;;;;;1.58;1.10;;;;;;;24.45;48.06;100563.63;4163836;28;20371;-65
2022/08/01 03:00:04;;;;;;;2.63;1.20;;;;;;;24.43;48.04;100569.00;4162388;28;20061;-65
2022/08/01 03:02:09;;;;;;;8.88;2.42;;;;;;;24.47;48.03;100569.72;4162382;28;20463;-65
2022/08/01 03:04:13;;;;;;;3.65;1.35;;;;;;;24.48;48.34;100566.16;4163867;28;20036;-65
2022/08/01 03:06:18;;;;;;;4.05;1.50;;;;;;;24.47;48.43;100567.06;4162438;28;20048;-65
2022/08/01 03:08:23;;;;;;;1.45;1.02;;;;;;;24.46;48.65;100573.31;4163214;28;20044;-65
2022/08/01 03:10:28;;;;;;;2.00;1.15;;;;;;;24.40;48.90;100564.69;4165196;28;20505;-65
2022/08/01 03:12:34;;;;;;;2.30;1.25;;;;;;;24.36;49.17;100571.03;4163077;28;20431;-65
2022/08/01 03:14:40;;;;;;;4.35;1.30;;;;;;;24.33;49.34;100573.84;4163691;28;20069;-65
2022/08/01 03:16:47;;;;;;;7.03;1.70;;;;;;;24.31;49.42;100573.03;4163139;28;20057;-65
2022/08/01 03:18:52;;;;;;;3.50;1.27;;;;;;;24.25;49.34;100573.28;4162420;28;20041;-66
2022/08/01 03:20:57;;;;;;;1.60;1.17;;;;;;;24.26;49.28;100566.19;4163127;28;20040;-65
2022/08/01 03:23:04;;;;;;;1.35;1.10;;;;;;;24.20;49.42;100568.16;4162165;28;20386;-65
2022/08/01 03:25:08;;;;;;;2.83;1.10;;;;;;;24.19;49.51;100570.88;4162188;28;20047;-65
2022/08/01 03:27:13;;;;;;;2.30;1.20;;;;;;;24.20;49.43;100567.31;4163015;28;21275;-65
2022/08/01 03:29:17;;;;;;;;;;;;;;;24.03;49.44;100573.28;4162650;28;20381;-65
2022/08/01 03:31:20;;;;;;;3.63;1.50;;;;;;;24.01;49.41;100564.53;4162091;28;19925;-65
2022/08/01 03:33:23;;;;;;;2.00;1.10;;;;;;;24.02;49.46;100574.19;4163142;28;20121;-65
2022/08/01 03:35:30;;;;;;;1.80;1.00;;;;;;;24.02;49.66;100569.78;4164978;28;20041;-65
2022/08/01 03:37:37;;;;;;;5.82;1.33;;;;;;;23.95;49.78;100570.94;4166213;28;20408;-66
2022/08/01 03:40:08;;;;;;;1.77;1.08;;;;;;;23.91;49.86;100568.47;4163118;28;20041;-65
2022/08/01 03:42:18;;;;;;;3.55;1.00;;;;;;;23.90;49.93;100572.03;4164209;28;20056;-65
2022/08/01 03:44:25;;;;;;;2.45;1.45;;;;;;;23.88;50.03;100572.13;4157465;28;20491;-65
2022/08/01 03:46:33;;;;;;;3.72;1.38;;;;;;;23.93;50.19;100570.13;4164527;28;20049;-66
2022/08/01 03:48:41;;;;;;;2.92;1.27;;;;;;;23.95;50.10;100572.75;4164183;28;20536;-66
2022/08/01 03:50:48;;;;;;;3.58;1.00;;;;;;;23.91;49.99;100572.00;4160193;28;20410;-64
2022/08/01 03:52:52;;;;;;;2.65;1.20;;;;;;;24.02;48.11;100575.09;4164465;28;20429;-68
2022/08/01 03:54:57;;;;;;;1.30;1.20;;;;;;;24.27;47.95;100574.09;4165776;28;20040;-68
2022/08/01 03:57:02;;;;;;;3.25;1.60;;;;;;;24.45;47.73;100582.22;4166645;28;20330;-68
2022/08/01 03:59:06;;;;;;;4.38;1.17;;;;;;;24.58;47.82;100570.16;4167332;28;20029;-67
2022/08/01 04:01:09;;;;;;;1.63;1.08;;;;;;;24.63;47.64;100573.50;4165721;28;20048;-68
2022/08/01 04:03:18;;;;;;;5.32;1.15;;;;;;;24.58;47.82;100567.50;4164549;28;20045;-67
2022/08/01 04:05:21;;;;;;;4.38;1.58;;;;;;;24.49;47.98;100573.22;4146903;28;20045;-67
2022/08/01 04:07:26;;;;;;;1.83;1.10;;;;;;;24.55;47.99;100563.16;4159372;28;20041;-68
2022/08/01 04:09:28;;;;;;;3.58;1.40;;;;;;;24.48;48.04;100566.16;4166429;28;20053;-67
2022/08/01 04:11:32;;;;;;;2.75;1.55;;;;;;;24.48;47.86;100556.38;4165830;28;20483;-68
2022/08/01 04:13:36;;;;;;;2.42;1.08;;;;;;;24.56;47.88;100564.91;4163626;28;20041;-68
2022/08/01 04:15:40;;;;;;;2.00;1.35;;;;;;;24.51;48.00;100566.03;4166778;28;20526;-68
2022/08/01 04:17:43;;;;;;;2.85;1.30;;;;;;;24.48;48.15;100572.31;4166324;28;20033;-68
2022/08/01 04:19:46;;;;;;;4.53;1.45;;;;;;;24.46;48.42;100570.66;4158938;28;20049;-68
2022/08/01 04:21:49;;;;;;;2.13;1.45;;;;;;;24.36;48.51;100576.34;4160937;28;20063;-68
2022/08/01 04:23:54;;;;;;;1.20;1.10;;;;;;;24.29;48.65;100577.53;4164049;28;20060;-69
2022/08/01 04:26:00;;;;;;;2.38;1.42;;;;;;;24.23;48.94;100580.44;4159953;28;20056;-70
2022/08/01 04:28:07;;;;;;;4.03;1.40;;;;;;;24.15;49.15;100577.22;4170364;28;20037;-70
2022/08/01 04:30:14;;;;;;;1.52;1.30;;;;;;;24.12;49.33;100582.69;4164157;28;20056;-70
2022/08/01 04:32:23;;;;;;;2.63;1.33;;;;;;;23.97;49.52;100584.16;4163759;28;20045;-68
2022/08/01 04:34:28;;;;;;;;;;;;;;;23.74;50.02;100582.38;4164482;28;20046;-68
2022/08/01 04:36:34;;;;;;;2.17;1.30;;;;;;;23.67;50.29;100582.59;4164700;28;19928;-68
2022/08/01 04:38:39;;;;;;;1.23;0.98;;;;;;;23.68;50.34;100588.78;4181281;28;20498;-68
2022/08/01 04:40:43;;;;;;;3.45;1.15;;;;;;;23.75;50.20;100594.72;4166227;28;20129;-68
2022/08/01 04:42:48;;;;;;;2.70;1.30;;;;;;;23.78;50.21;100591.94;4163346;28;20384;-70
2022/08/01 04:44:51;;;;;;;3.00;1.45;;;;;;;23.77;50.13;100598.16;4165435;28;20033;-68
2022/08/01 04:46:56;;;;;;;1.55;1.20;;;;;;;23.80;50.08;100596.28;4165358;28;20136;-68
2022/08/01 04:49:00;;;;;;;1.55;1.10;;;;;;;23.74;50.38;100590.34;4165870;28;20141;-68
2022/08/01 04:51:04;;;;;;;3.00;1.33;;;;;;;23.79;50.40;100593.69;4164816;28;20053;-68
2022/08/01 04:53:14;;;;;;;2.30;1.10;;;;;;;23.73;50.37;100599.22;4165101;28;20065;-68
2022/08/01 04:55:17;;;;;;;3.10;1.35;;;;;;;23.72;50.33;100600.16;4165817;28;20335;-68
2022/08/01 04:57:20;;;;;;;2.58;1.17;;;;;;;23.72;50.28;100597.50;4164488;28;20076;-68
2022/08/01 04:59:41;;;;;;;3.47;2.22;;;;;;;23.75;50.37;100597.38;4164419;28;20041;-68
2022/08/01 05:01:49;;;;;;;2.17;1.13;;;;;;;23.75;50.27;100600.88;4176432;28;20080;-68
2022/08/01 05:03:53;;;;;;;2.85;1.35;;;;;;;23.79;50.22;100594.53;4169163;28;20034;-68
2022/08/01 05:05:56;;;;;;;;;;;;;;;23.65;50.50;100602.16;4166035;28;20471;-68
2022/08/01 05:08:00;;;;;;;1.92;1.17;;;;;;;23.61;50.71;100596.13;4165944;28;20283;-68
2022/08/01 05:10:04;;;;;;;1.75;1.33;;;;;;;23.61;50.79;100596.13;4165606;28;20040;-68
2022/08/01 05:12:10;;;;;;;2.25;1.33;;;;;;;23.55;51.00;100600.78;4163672;28;20037;-68
2022/08/01 05:14:13;;;;;;;2.13;1.30;;;;;;;23.42;51.14;100598.59;4164076;28;20491;-68
2022/08/01 05:16:16;;;;;;;2.25;1.20;;;;;;;23.41;51.21;100594.22;4164305;28;20046;-68
2022/08/01 05:18:19;;;;;;;1.40;1.27;;;;;;;23.41;51.35;100596.88;4165543;28;20583;-68
2022/08/01 05:20:31;;;;;;;3.78;1.20;;;;;;;23.48;51.25;100594.81;4164782;28;20037;-68
2022/08/01 05:22:34;;;;;;;3.38;1.35;;;;;;;23.56;51.10;100597.22;4164642;28;20095;-68
2022/08/01 05:24:39;;;;;;;1.63;1.10;;;;;;;23.56;51.43;100599.88;4165098;28;20037;-70
2022/08/01 05:26:43;;;;;;;3.38;1.48;;;;;;;23.57;50.96;100598.94;4165175;28;20036;-70
2022/08/01 05:28:46;;;;;;;2.15;1.20;;;;;;;23.58;50.97;100598.88;4163940;28;20041;-69
2022/08/01 05:30:49;;;;;;;4.10;1.10;;;;;;;23.62;50.80;100602.28;4173551;28;20133;-69
2022/08/01 05:32:52;;;;;;;5.20;1.65;;;;;;;23.48;51.23;100606.31;4180862;28;20112;-69
2022/08/01 05:34:55;;;;;;;1.92;1.20;;;;;;;23.38;51.39;100606.72;4181760;28;20032;-69
2022/08/01 05:36:59;;;;;;;2.25;1.20;;;;;;;23.34;51.54;100606.81;4166153;28;20029;-69
2022/08/01 05:39:02;;;;;;;2.65;1.50;;;;;;;23.32;51.76;100606.03;4161978;28;20048;-69
2022/08/01 05:41:05;;;;;;;4.20;1.50;;;;;;;23.38;51.50;100610.25;4161229;28;20045;-69
2022/08/01 05:43:08;;;;;;;2.70;1.30;;;;;;;23.42;51.55;100610.97;4146153;28;20046;-68
2022/08/01 05:45:11;;;;;;;4.70;1.65;;;;;;;23.46;51.48;100617.91;4160726;28;20042;-68
2022/08/01 05:47:14;;;;;;;1.92;1.35;;;;;;;23.39;51.64;100616.41;4160957;28;20033;-69
2022/08/01 05:49:17;;;;;;;4.10;1.23;;;;;;;23.34;51.89;100614.78;4164050;28;20049;-69
2022/08/01 05:51:20;;;;;;;2.95;1.25;;;;;;;23.35;51.77;100610.38;4162720;28;20045;-69
2022/08/01 05:53:24;;;;;;;4.00;1.27;;;;;;;23.39;51.87;100614.59;4160081;28;20044;-69
2022/08/01 05:55:27;;;;;;;3.42;1.35;;;;;;;23.45;51.84;100610.88;4161532;28;20487;-69
2022/08/01 05:57:30;;;;;;;4.25;1.40;;;;;;;23.55;51.54;100622.88;4163726;28;20042;-69
2022/08/01 05:59:33;;;;;;;3.85;1.25;;;;;;;23.58;51.64;100622.75;4163453;28;20501;-69
2022/08/01 06:01:36;;;;;;;3.30;1.45;;;;;;;23.62;51.59;100623.53;4164435;28;20049;-69
2022/08/01 06:03:39;;;;;;;3.15;1.10;;;;;;;23.69;51.43;100623.22;4160438;28;20037;-69
2022/08/01 06:05:42;;;;;;;2.42;1.48;;;;;;;23.82;51.04;100618.31;4146781;28;20268;-69
2022/08/01 06:07:45;;;;;;;1.80;1.10;;;;;;;23.92;50.94;100624.19;4164655;28;20041;-69
2022/08/01 06:09:49;;;;;;;3.67;1.20;;;;;;;24.06;50.30;100623.63;4164569;28;20037;-69
2022/08/01 06:11:52;;;;;;;2.67;0.98;;;;;;;23.95;50.35;100618.75;4163223;28;20045;-69
2022/08/01 06:13:55;;;;;;;3.10;1.30;;;;;;;23.94;50.45;100622.31;4164366;28;20033;-70
2022/08/01 06:15:58;;;;;;;1.83;1.17;;;;;;;24.02;50.46;100628.19;4164559;28;20037;-69
2022/08/01 06:18:01;;;;;;;1.67;1.10;;;;;;;24.05;50.34;100628.06;4164616;28;20043;-69
2022/08/01 06:20:05;;;;;;;3.38;1.20;;;;;;;24.10;50.47;100635.84;4164549;28;20041;-69
2022/08/01 06:22:08;;;;;;;;;;;;;;;24.02;50.60;100627.31;4163952;28;20130;-68
2022/08/01 06:24:11;;;;;;;2.63;1.25;;;;;;;24.04;50.37;100625.47;4164231;28;19927;-67
2022/08/01 06:26:18;;;;;;;4.13;1.42;;;;;;;24.05;50.60;100632.53;4164283;28;20047;-68
2022/08/01 06:28:21;;;;;;;1.02;0.93;;;;;;;24.16;50.22;100632.09;4163738;28;20147;-68
2022/08/01 06:30:24;;;;;;;4.63;1.23;;;;;;;24.23;50.07;100637.09;4164297;28;20136;-68
2022/08/01 06:32:27;;;;;;;4.53;1.48;;;;;;;24.32;49.89;100629.69;4163596;28;20044;-68
2022/08/01 06:34:30;;;;;;;2.42;1.48;;;;;;;24.29;50.21;100636.00;4163050;28;20503;-68
2022/08/01 06:36:32;;;;;;;2.60;1.05;;;;;;;24.25;49.99;100622.91;4163136;28;20092;-68
2022/08/01 06:38:35;;;;;;;1.92;0.90;;;;;;;24.26;50.10;100640.56;4164253;28;20044;-68
2022/08/01 06:40:38;;;;;;;2.47;1.10;;;;;;;24.17;50.21;100639.16;4162929;28;20515;-68
2022/08/01 06:42:43;;;;;;;3.45;1.40;;;;;;;24.46;49.77;100637.09;4163488;28;20041;-68
2022/08/01 06:44:46;;;;;;;2.08;1.02;;;;;;;24.45;49.51;100636.25;4178774;28;20447;-68
2022/08/01 06:46:49;;;;;;;3.72;1.40;;;;;;;24.50;49.63;100636.94;4164176;28;20041;-69
2022/08/01 06:48:52;;;;;;;3.25;1.20;;;;;;;24.79;49.29;100639.31;4163016;28;20041;-68
2022/08/01 06:51:08;;;;;;;2.60;1.30;;;;;;;25.00;48.31;100643.72;4162924;28;20053;-68
2022/08/01 06:53:11;;;;;;;1.45;1.00;;;;;;;25.02;48.10;100646.31;4163333;28;20051;-68
2022/08/01 06:55:14;;;;;;;3.45;1.20;;;;;;;24.97;48.77;100642.97;4162808;28;20088;-68
2022/08/01 06:57:17;;;;;;;2.10;1.17;;;;;;;25.01;48.18;100649.91;4164124;28;20045;-68
2022/08/01 06:59:21;;;;;;;1.55;0.98;;;;;;;24.98;48.11;100647.38;4164096;28;20041;-68
2022/08/01 07:01:24;;;;;;;3.03;1.13;;;;;;;24.85;48.57;100650.56;4161426;28;20446;-68
2022/08/01 07:03:27;;;;;;;5.30;1.27;;;;;;;24.84;48.51;100647.97;4155501;28;20341;-68
2022/08/01 07:05:50;;;;;;;2.92;1.25;;;;;;;25.21;47.69;100657.03;4163097;28;20041;-68
2022/08/01 07:07:53;;;;;;;2.97;1.20;;;;;;;25.00;48.10;100657.03;4164673;28;20073;-68
2022/08/01 07:09:56;;;;;;;2.65;1.15;;;;;;;24.97;48.34;100659.81;4166261;28;20045;-68
2022/08/01 07:11:59;;;;;;;2.97;1.10;;;;;;;24.83;48.39;100656.88;4164509;28;20042;-68
2022/08/01 07:14:03;;;;;;;2.08;1.00;;;;;;;24.83;48.81;100662.19;4165113;28;20037;-68
2022/08/01 07:16:07;;;;;;;3.33;1.15;;;;;;;25.00;48.41;100657.03;4164503;28;20029;-68
2022/08/01 07:18:09;;;;;;;;;;;;;;;24.74;48.61;100656.31;4165202;28;20037;-67
2022/08/01 07:20:13;;;;;;;2.85;1.30;;;;;;;24.65;49.05;100654.06;4166208;28;19927;-68
2022/08/01 07:22:18;;;;;;;1.65;1.00;;;;;;;24.67;49.07;100652.19;4165326;28;20050;-67
2022/08/01 07:24:25;;;;;;;2.97;1.35;;;;;;;24.70;48.89;100652.06;4165239;28;20519;-68
2022/08/01 07:26:30;;;;;;;2.10;1.10;;;;;;;24.68;48.93;100642.44;4165145;28;20084;-68
2022/08/01 07:28:33;;;;;;;1.13;0.93;;;;;;;24.62;49.04;100642.69;4166856;28;20037;-68
2022/08/01 07:30:45;;;;;;;2.95;1.13;;;;;;;24.62;49.10;100648.00;4167147;28;20072;-68
2022/08/01 07:32:50;;;;;;;1.38;1.15;;;;;;;24.61;49.00;100640.97;4166134;28;20041;-67
2022/08/01 07:34:52;;;;;;;3.85;1.27;;;;;;;24.58;49.13;100641.91;4165782;28;20048;-68
2022/08/01 07:36:55;;;;;;;2.15;1.10;;;;;;;24.56;49.16;100641.09;4166407;28;20049;-69
2022/08/01 07:38:58;;;;;;;1.75;1.10;;;;;;;24.50;49.43;100641.34;4165567;28;20033;-69
2022/08/01 07:41:03;;;;;;;4.55;1.25;;;;;;;24.60;49.30;100637.41;4165593;28;20491;-69
2022/08/01 07:43:06;;;;;;;1.83;1.40;;;;;;;24.70;49.02;100638.78;4166120;28;20094;-69
2022/08/01 07:45:09;;;;;;;1.08;0.80;;;;;;;24.74;49.06;100635.06;4165514;28;20052;-69
2022/08/01 07:47:12;;;;;;;2.20;1.23;;;;;;;24.79;48.89;100644.63;4150469;28;20046;-69
2022/08/01 07:49:17;;;;;;;2.90;1.02;;;;;;;24.86;48.60;100640.78;4150474;28;20519;-69
2022/08/01 07:51:20;;;;;;;1.92;1.30;;;;;;;24.92;48.35;100637.88;4150423;28;20137;-69
2022/08/01 07:53:23;;;;;;;1.73;1.20;;;;;;;24.94;47.94;100638.69;4157598;28;20060;-69
2022/08/01 07:55:26;;;;;;;2.80;1.10;;;;;;;24.96;48.12;100634.16;4182103;28;20517;-69
2022/08/01 07:57:29;;;;;;;3.10;1.30;;;;;;;24.93;48.13;100628.97;4183229;28;20132;-69
2022/08/01 07:59:31;;;;;;;2.08;1.25;;;;;;;25.05;47.88;100643.53;4183228;28;20045;-69
2022/08/01 08:01:34;;;;;;;1.42;0.75;;;;;;;25.04;47.90;100640.00;4182931;28;20040;-69
2022/08/01 08:03:37;;;;;;;2.15;0.80;;;;;;;25.09;47.82;100637.16;4182880;28;20051;-69
2022/08/01 08:05:41;;;;;;;2.53;1.10;;;;;;;25.09;48.09;100635.34;4181751;28;20041;-69
2022/08/01 08:08:01;;;;;;;2.90;1.30;;;;;;;25.34;47.87;100634.28;4181802;28;20041;-69
2022/08/01 08:10:05;;;;;;;5.78;1.65;;;;;;;25.54;47.02;100636.06;4175676;28;20120;-70
2022/08/01 08:12:09;;;;;;;1.73;0.90;;;;;;;25.44;47.05;100643.59;4149431;28;20135;-70
2022/08/01 08:14:12;;;;;;;3.73;1.50;;;;;;;25.56;46.63;100641.31;4165223;28;20052;-70
2022/08/01 08:16:15;;;;;;;5.80;1.40;;;;;;;25.61;46.70;100644.63;4150176;28;20049;-70
2022/08/01 08:18:18;;;;;;;2.83;1.42;;;;;;;25.83;46.17;100639.19;4149792;28;20084;-70
2022/08/01 08:20:24;;;;;;;1.90;1.00;;;;;;;25.72;46.20;100646.81;4165211;28;20402;-69
2022/08/01 08:22:29;;;;;;;2.50;1.30;;;;;;;25.60;46.87;100640.25;4178314;28;20037;-70
2022/08/01 08:24:30;;;;;;;;;;;;;;;25.88;46.06;100646.97;4166449;28;20037;-70
2022/08/01 08:26:33;;;;;;;3.60;1.52;;;;;;;25.91;45.81;100647.66;4165532;28;20441;-69
2022/08/01 08:28:36;;;;;;;4.28;1.40;;;;;;;25.67;46.55;100639.03;4166257;28;20080;-69
2022/08/01 08:30:42;;;;;;;4.07;1.50;;;;;;;25.56;46.48;100638.66;4166361;28;20038;-69
2022/08/01 08:32:45;;;;;;;3.63;1.20;;;;;;;25.52;46.85;100642.38;4165468;28;20132;-69
2022/08/01 08:34:48;;;;;;;3.65;1.60;;;;;;;25.49;46.77;100645.19;4164128;28;20056;-69
2022/08/01 08:36:52;;;;;;;4.13;1.13;;;;;;;25.44;46.90;100648.06;4165838;28;20033;-69
2022/08/01 08:38:56;;;;;;;2.22;1.20;;;;;;;25.46;47.18;100640.00;4164988;28;20510;-69
2022/08/01 08:41:00;;;;;;;;;;;;;;;25.42;47.55;100641.91;4165528;28;20079;-69
2022/08/01 08:43:04;;;;;;;4.95;1.30;;;;;;;25.50;47.21;100636.28;4161824;28;19929;-69
2022/08/01 08:45:08;;;;;;;3.00;1.33;;;;;;;25.52;46.92;100637.91;4163855;28;20057;-69
2022/08/01 08:47:15;;;;;;;2.58;1.20;;;;;;;25.52;46.95;100639.72;4165842;28;20042;-68
2022/08/01 08:49:24;;;;;;;4.13;1.40;;;;;;;25.81;46.76;100633.03;4165818;28;20033;-69
2022/08/01 08:51:30;;;;;;;4.65;1.25;;;;;;;25.89;46.30;100630.91;4168498;28;20094;-70
2022/08/01 08:53:35;;;;;;;2.10;1.13;;;;;;;25.83;46.92;100639.19;4180545;28;20043;-68
2022/08/01 08:55:42;;;;;;;4.15;1.23;;;;;;;25.79;47.21;100637.59;4182319;28;20076;-70
2022/08/01 08:58:00;;;;;;;3.35;1.30;;;;;;;25.77;46.93;100632.34;4182297;28;20171;-69
2022/08/01 09:00:04;;;;;;;4.10;1.30;;;;;;;25.75;47.17;100633.34;4182125;28;20514;-69
2022/08/01 09:02:09;;;;;;;2.70;1.48;;;;;;;25.82;46.93;100633.91;4166811;28;20041;-69
2022/08/01 09:04:12;;;;;;;7.22;1.27;;;;;;;25.76;46.59;100635.94;4165936;28;20136;-69
2022/08/01 09:06:15;;;;;;;4.47;1.27;;;;;;;25.78;46.49;100633.19;4164377;28;20466;-69
2022/08/01 09:08:18;;;;;;;1.38;1.00;;;;;;;25.77;47.00;100637.66;4165657;28;20040;-69
2022/08/01 09:10:21;;;;;;;2.03;1.05;;;;;;;25.88;46.17;100639.81;4164373;28;20136;-69
2022/08/01 09:12:26;;;;;;;3.33;1.08;;;;;;;25.89;46.16;100636.22;4164777;28;20041;-69
2022/08/01 09:14:30;;;;;;;;;;;;;;;25.94;45.99;100633.34;4165858;28;20072;-70
2022/08/01 09:16:34;;;;;;;3.85;1.42;;;;;;;25.95;46.04;100635.09;4165574;28;19960;-69
2022/08/01 09:18:40;;;;;;;2.55;1.02;;;;;;;25.98;46.04;100640.25;4164130;28;20116;-69
2022/08/01 09:20:43;;;;;;;8.40;1.67;;;;;;;26.12;45.72;100639.63;4165335;28;20573;-69
2022/08/01 09:22:46;;;;;;;4.32;1.27;;;;;;;26.17;45.61;100648.28;4164581;28;20073;-69
2022/08/01 09:25:00;;;;;;;4.88;2.15;;;;;;;26.18;45.27;100646.47;4164102;28;20128;-68
2022/08/01 09:27:17;;;;;;;5.53;1.60;;;;;;;26.27;44.77;100643.38;4197157;28;20043;-70
2022/08/01 09:29:27;;;;;;;4.88;1.67;;;;;;;26.12;44.88;100651.16;4164597;28;20513;-69
2022/08/01 09:31:42;;;;;;;5.78;1.40;;;;;;;25.98;45.62;100642.91;4164552;28;20034;-70
2022/08/01 09:33:52;;;;;;;4.15;1.60;;;;;;;26.00;45.54;100642.88;4165139;28;20041;-69
2022/08/01 09:35:58;;;;;;;2.05;1.25;;;;;;;26.06;44.97;100646.09;4163495;28;20360;-69
2022/08/01 09:38:17;;;;;;;3.83;1.30;;;;;;;26.18;45.25;100643.78;4165127;28;20483;-69
2022/08/01 09:40:20;;;;;;;4.05;1.23;;;;;;;26.12;45.51;100643.16;4157513;28;20037;-69
2022/08/01 09:42:25;;;;;;;4.93;1.52;;;;;;;26.24;45.35;100648.81;4164424;28;20376;-69
2022/08/01 09:44:39;;;;;;;3.05;1.30;;;;;;;26.38;45.90;100646.34;4165017;28;20068;-70
2022/08/01 09:46:52;;;;;;;;;;;;;;;26.66;44.79;100639.66;4164262;28;20033;-69
2022/08/01 09:48:59;;;;;;;1.83;1.27;;;;;;;26.94;43.72;100640.94;4165224;28;19947;-68